Time;durP1;ratioP1;P1;durP2;ratioP2;P2;SDS_P1;SDS_P2;PMS_P1;PMS_P2;Temp;Humidity;BMP_temperature;BMP_pressure;BME280_temperature;BME280_humidity;BME280_pressure;Samples;Min_cycle;Max_cycle;Signal;HPM_P1;HPM_P2
2022/06/25 00:00:22;;;;;;;6.28;3.05;;;;;;;24.74;46.46;100287.66;4993333;28;20447;-78
2022/06/25 00:02:48;;;;;;;11.95;3.90;;;;;;;24.71;46.86;100283.44;4991641;28;20030;-78
2022/06/25 00:05:28;;;;;;;10.30;3.22;;;;;;;24.74;46.77;100277.50;4992845;28;20068;-78
2022/06/25 00:07:56;;;;;;;8.85;2.75;;;;;;;24.81;45.96;100282.97;4992797;28;20057;-78
2022/06/25 00:10:23;;;;;;;7.35;2.25;;;;;;;24.84;45.96;100286.13;4992972;28;20037;-78
2022/06/25 00:12:49;;;;;;;12.77;3.00;;;;;;;24.87;45.97;100288.41;4993012;28;20026;-78
2022/06/25 00:15:14;;;;;;;5.35;2.63;;;;;;;24.90;45.71;100287.13;4993078;28;20038;-78
2022/06/25 00:17:40;;;;;;;11.70;3.28;;;;;;;24.91;45.31;100280.56;4991544;28;20037;-77
2022/06/25 00:20:07;;;;;;;12.77;2.65;;;;;;;24.94;45.26;100279.25;4991447;28;20061;-78
2022/06/25 00:22:33;;;;;;;9.55;2.92;;;;;;;24.89;45.01;100253.25;4992692;28;20033;-78
2022/06/25 00:24:58;;;;;;;5.95;2.95;;;;;;;24.87;45.35;100269.16;4992832;28;20034;-77
2022/06/25 00:27:24;;;;;;;9.27;2.92;;;;;;;24.83;45.19;100259.66;4992894;28;20451;-78
2022/06/25 00:29:49;;;;;;;6.32;2.33;;;;;;;24.88;44.96;100267.25;4992719;28;20045;-78
2022/06/25 00:32:16;;;;;;;16.95;3.78;;;;;;;24.86;44.93;100270.22;4992619;28;20068;-78
2022/06/25 00:34:42;;;;;;;5.97;3.00;;;;;;;24.83;45.18;100276.16;4992951;28;20096;-77
2022/06/25 00:37:08;;;;;;;6.25;2.65;;;;;;;24.85;45.05;100274.06;4992592;28;20113;-77
2022/06/25 00:39:35;;;;;;;10.75;2.55;;;;;;;24.82;45.18;100269.00;4992601;28;20249;-78
2022/06/25 00:42:01;;;;;;;6.18;2.75;;;;;;;24.83;45.31;100269.84;4992705;28;20054;-78
2022/06/25 00:44:30;;;;;;;12.73;3.38;;;;;;;24.81;45.58;100272.81;4992784;28;20026;-78
2022/06/25 00:46:56;;;;;;;3.90;2.67;;;;;;;24.81;45.30;100269.22;4992585;28;20031;-78
2022/06/25 00:49:22;;;;;;;5.47;2.75;;;;;;;24.79;45.30;100271.34;4992689;28;20472;-77
2022/06/25 00:51:50;;;;;;;9.85;2.80;;;;;;;24.78;45.20;100273.25;4992491;28;20034;-77
2022/06/25 00:54:17;;;;;;;5.18;2.33;;;;;;;24.74;45.36;100266.50;4994864;28;20062;-78
2022/06/25 00:56:52;;;;;;;7.72;3.00;;;;;;;24.71;45.74;100261.44;4996087;28;20033;-78
2022/06/25 00:59:27;;;;;;;7.60;2.22;;;;;;;24.68;45.68;100267.41;4996050;28;20065;-78
2022/06/25 01:01:53;;;;;;;6.00;2.85;;;;;;;24.67;45.87;100265.72;4996040;28;20034;-78
2022/06/25 01:04:20;;;;;;;14.75;3.10;;;;;;;24.63;46.02;100258.97;4995946;28;20034;-78
2022/06/25 01:06:46;;;;;;;11.88;3.53;;;;;;;24.57;46.28;100265.38;4995838;28;20109;-78
2022/06/25 01:09:11;;;;;;;10.30;3.75;;;;;;;24.49;46.36;100254.69;4996037;28;20117;-78
2022/06/25 01:11:37;;;;;;;7.25;2.60;;;;;;;24.50;46.42;100261.84;4995944;28;20030;-78
2022/06/25 01:14:09;;;;;;;10.20;3.13;;;;;;;24.44;46.56;100262.72;4995785;28;20022;-78
2022/06/25 01:16:36;;;;;;;10.63;2.75;;;;;;;24.40;46.80;100257.94;4995874;28;20100;-78
2022/06/25 01:19:10;;;;;;;10.52;2.65;;;;;;;24.41;46.81;100260.44;4995728;28;20384;-78
2022/06/25 01:21:36;;;;;;;12.05;3.20;;;;;;;24.41;46.67;100259.59;4995549;28;20408;-77
2022/06/25 01:24:06;;;;;;;4.97;2.50;;;;;;;24.28;46.79;100249.53;4995634;28;20062;-78
2022/06/25 01:26:36;;;;;;;6.65;3.00;;;;;;;24.28;46.99;100261.38;4995508;28;20033;-78
2022/06/25 01:29:02;;;;;;;8.45;2.60;;;;;;;24.21;47.28;100266.09;4995498;28;20053;-77
2022/06/25 01:31:28;;;;;;;7.90;3.03;;;;;;;24.18;47.36;100254.69;4995515;28;20050;-78
2022/06/25 01:33:53;;;;;;;7.88;3.22;;;;;;;24.20;47.41;100258.06;4994343;28;20168;-77
2022/06/25 01:36:19;;;;;;;10.73;3.38;;;;;;;24.16;47.47;100251.31;4995628;28;20392;-77
2022/06/25 01:38:45;;;;;;;10.43;3.95;;;;;;;24.13;47.52;100263.59;4995319;28;20483;-77
2022/06/25 01:41:10;;;;;;;11.27;2.92;;;;;;;24.05;47.91;100260.25;4995299;28;20089;-77
2022/06/25 01:43:36;;;;;;;9.20;2.58;;;;;;;23.99;47.83;100255.63;4995024;28;20100;-78
2022/06/25 01:46:01;;;;;;;10.73;3.78;;;;;;;24.00;47.85;100268.31;4995278;28;20124;-77
2022/06/25 01:48:27;;;;;;;10.00;3.03;;;;;;;23.94;48.04;100258.22;4995351;28;20037;-77
2022/06/25 01:50:52;;;;;;;8.68;2.72;;;;;;;23.93;47.86;100262.00;4995258;28;20026;-77
2022/06/25 01:53:17;;;;;;;9.15;3.42;;;;;;;23.92;48.27;100265.81;4995200;28;20026;-77
2022/06/25 01:55:43;;;;;;;23.70;3.58;;;;;;;23.87;48.33;100273.88;4995231;28;20125;-78
2022/06/25 01:58:08;;;;;;;10.63;2.97;;;;;;;23.85;48.27;100260.38;4995026;28;20031;-77
2022/06/25 02:00:34;;;;;;;20.10;3.83;;;;;;;23.84;48.49;100265.03;4994991;28;20026;-78
2022/06/25 02:03:01;;;;;;;11.98;3.67;;;;;;;23.85;48.49;100260.38;4995035;28;20026;-77
2022/06/25 02:08:14;;;;;;;8.07;2.92;;;;;;;23.76;48.84;100261.66;4994967;28;20033;-78
2022/06/25 02:10:41;;;;;;;5.00;2.72;;;;;;;23.72;48.82;100260.44;4994945;28;20022;-77
2022/06/25 02:13:06;;;;;;;6.93;2.70;;;;;;;23.70;48.96;100257.91;4994791;28;20030;-77
2022/06/25 02:15:32;;;;;;;9.27;3.97;;;;;;;23.69;48.76;100267.22;4994666;28;20400;-77
2022/06/25 02:17:59;;;;;;;16.10;3.40;;;;;;;23.63;48.95;100268.09;4994581;28;20460;-76
2022/06/25 02:20:24;;;;;;;4.80;2.75;;;;;;;23.63;49.41;100264.50;4994308;28;20041;-76
2022/06/25 02:22:50;;;;;;;13.68;3.20;;;;;;;23.60;49.15;100257.53;4994115;28;20460;-76
2022/06/25 02:25:16;;;;;;;6.78;3.03;;;;;;;23.59;49.10;100266.84;4994340;28;20110;-77
2022/06/25 02:27:41;;;;;;;8.25;2.88;;;;;;;23.56;49.58;100270.00;4994491;28;20029;-77
2022/06/25 02:30:07;;;;;;;5.45;3.60;;;;;;;23.46;49.67;100250.41;4994456;28;20022;-76
2022/06/25 02:32:33;;;;;;;10.95;4.05;;;;;;;23.53;49.79;100278.69;4994327;28;20030;-79
2022/06/25 02:34:59;;;;;;;9.65;3.28;;;;;;;23.55;49.74;100283.94;4994262;28;20038;-78
2022/06/25 02:37:25;;;;;;;6.85;2.90;;;;;;;23.52;49.69;100276.16;4994220;28;20033;-78
2022/06/25 02:39:50;;;;;;;14.05;3.72;;;;;;;23.55;49.96;100279.31;4994137;28;20026;-79
2022/06/25 02:42:16;;;;;;;8.82;2.97;;;;;;;23.50;50.06;100281.88;4994290;28;20038;-77
2022/06/25 02:44:41;;;;;;;11.05;2.90;;;;;;;23.48;49.96;100275.75;4994141;28;20121;-76
2022/06/25 02:47:07;;;;;;;16.33;4.45;;;;;;;23.54;50.07;100293.25;4994188;28;20033;-77
2022/06/25 02:49:32;;;;;;;6.43;3.58;;;;;;;23.53;49.92;100284.19;4993988;28;20109;-77
2022/06/25 02:51:57;;;;;;;10.32;2.55;;;;;;;23.57;49.84;100299.16;4993963;28;20030;-77
2022/06/25 02:54:23;;;;;;;12.50;3.40;;;;;;;23.54;49.95;100294.13;4993908;28;20034;-77
2022/06/25 02:59:37;;;;;;;7.38;2.65;;;;;;;23.57;50.35;100290.94;4994216;28;20048;-77
2022/06/25 03:02:02;;;;;;;11.88;3.35;;;;;;;23.62;50.31;100299.34;4994009;28;20034;-79
2022/06/25 03:04:28;;;;;;;7.13;3.38;;;;;;;23.64;50.19;100299.97;4993795;28;20038;-77
2022/06/25 03:06:54;;;;;;;6.60;2.67;;;;;;;23.67;50.28;100295.94;4993711;28;20026;-77
2022/06/25 03:09:20;;;;;;;15.38;3.83;;;;;;;23.76;49.95;100300.97;4993769;28;20396;-79
2022/06/25 03:11:46;;;;;;;8.93;2.88;;;;;;;23.80;49.93;100301.38;4993863;28;20034;-78
2022/06/25 03:14:11;;;;;;;11.57;3.42;;;;;;;23.85;49.73;100301.59;4993769;28;20405;-76
2022/06/25 03:16:37;;;;;;;16.20;3.70;;;;;;;23.89;49.98;100304.72;4992943;28;20026;-77
2022/06/25 03:19:03;;;;;;;7.93;2.85;;;;;;;24.00;49.56;100306.78;4993549;28;20034;-77
2022/06/25 03:21:29;;;;;;;13.20;3.50;;;;;;;24.05;49.48;100295.97;4993353;28;20045;-77
2022/06/25 03:23:54;;;;;;;10.90;3.38;;;;;;;24.12;49.23;100310.53;4993521;28;20431;-77
2022/06/25 03:26:20;;;;;;;8.18;3.65;;;;;;;24.20;49.05;100307.53;4993526;28;20106;-79
2022/06/25 03:28:47;;;;;;;7.63;3.55;;;;;;;24.20;49.19;100307.53;4993306;28;20057;-77
2022/06/25 03:31:12;;;;;;;10.85;3.42;;;;;;;24.23;49.58;100321.69;4993234;28;20588;-76
2022/06/25 03:33:38;;;;;;;3.85;2.97;;;;;;;24.33;48.86;100318.44;4993039;28;20117;-74
2022/06/25 03:36:03;;;;;;;12.10;3.30;;;;;;;24.35;48.81;100321.81;4991781;28;20029;-75
2022/06/25 03:38:29;;;;;;;10.95;3.85;;;;;;;24.25;48.73;100303.03;4993054;28;20065;-77
2022/06/25 03:41:32;;;;;;;13.52;2.90;;;;;;;24.34;49.29;100318.22;4992841;28;20054;-77
2022/06/25 03:43:41;;;;;;;12.75;3.35;;;;;;;24.45;49.03;100333.16;4992369;28;20451;-75
2022/06/25 03:46:06;;;;;;;6.32;3.05;;;;;;;24.52;48.82;100322.97;4992642;28;20038;-75
2022/06/25 03:48:32;;;;;;;9.90;2.80;;;;;;;24.59;48.48;100329.25;4992555;28;20026;-74
2022/06/25 03:50:57;;;;;;;8.48;4.07;;;;;;;24.61;48.56;100318.88;4992719;28;20520;-77
2022/06/25 03:53:23;;;;;;;9.38;3.83;;;;;;;24.72;48.69;100329.16;4992618;28;20101;-76
2022/06/25 03:55:48;;;;;;;8.70;3.92;;;;;;;24.78;49.64;100330.16;4992425;28;20096;-75
2022/06/25 03:58:14;;;;;;;6.45;3.55;;;;;;;24.84;49.71;100330.13;4992409;28;20034;-75
2022/06/25 04:00:39;;;;;;;8.95;3.30;;;;;;;24.92;48.64;100321.59;4992249;28;20054;-75
2022/06/25 04:03:05;;;;;;;7.18;3.45;;;;;;;25.01;47.98;100329.59;4992382;28;20535;-75
2022/06/25 04:05:30;;;;;;;9.18;3.72;;;;;;;24.98;48.06;100332.78;4992471;28;20033;-75
2022/06/25 04:07:56;;;;;;;9.85;4.00;;;;;;;25.08;48.25;100342.19;4992450;28;20022;-75
2022/06/25 04:10:22;;;;;;;11.52;4.07;;;;;;;25.12;48.74;100335.19;4992668;28;20030;-76
2022/06/25 04:12:47;;;;;;;32.13;6.65;;;;;;;25.09;48.67;100343.03;4992199;28;20030;-74
2022/06/25 04:15:12;;;;;;;16.08;4.85;;;;;;;25.06;48.54;100341.59;4991010;28;20469;-75
2022/06/25 04:17:38;;;;;;;13.98;4.63;;;;;;;24.95;48.79;100336.84;4992320;28;20392;-75
2022/06/25 04:20:04;;;;;;;15.90;4.20;;;;;;;24.90;49.22;100345.75;4992282;28;20461;-75
2022/06/25 04:22:29;;;;;;;13.07;4.50;;;;;;;24.86;49.73;100350.00;4992293;28;20018;-76
2022/06/25 04:24:55;;;;;;;20.17;5.22;;;;;;;24.86;50.40;100352.75;4992534;28;20041;-76
2022/06/25 04:30:06;;;;;;;10.63;4.40;;;;;;;24.76;50.57;100362.56;4996302;28;20049;-76
2022/06/25 04:32:31;;;;;;;15.75;5.03;;;;;;;24.77;50.75;100361.47;4996507;28;20446;-79
2022/06/25 04:34:56;;;;;;;17.33;4.68;;;;;;;24.83;50.34;100358.72;4996458;28;20026;-78
2022/06/25 04:37:22;;;;;;;11.18;4.80;;;;;;;24.84;50.75;100371.41;4996591;28;20029;-78
2022/06/25 04:39:47;;;;;;;19.75;5.05;;;;;;;24.87;50.61;100370.97;4996609;28;20023;-78
2022/06/25 04:42:13;;;;;;;8.00;4.55;;;;;;;24.89;50.34;100366.06;4994858;28;20054;-77
2022/06/25 04:44:38;;;;;;;16.48;4.53;;;;;;;24.98;50.04;100372.16;4996677;28;20034;-77
2022/06/25 04:47:04;;;;;;;6.40;4.03;;;;;;;25.03;49.20;100375.06;4996472;28;20080;-79
2022/06/25 04:49:29;;;;;;;13.82;4.05;;;;;;;25.06;49.52;100376.53;4995064;28;20023;-78
2022/06/25 04:51:55;;;;;;;17.05;5.53;;;;;;;25.14;49.79;100376.22;4995473;28;20469;-78
2022/06/25 04:54:21;;;;;;;26.52;5.28;;;;;;;25.24;49.61;100373.81;5004875;28;20041;-79
2022/06/25 04:56:47;;;;;;;15.95;3.95;;;;;;;25.35;49.47;100378.59;5015300;28;20025;-78
2022/06/25 04:59:13;;;;;;;5.93;3.65;;;;;;;25.39;49.46;100385.31;5015083;28;20026;-77
2022/06/25 05:01:38;;;;;;;11.07;4.03;;;;;;;25.38;49.28;100378.94;5015042;28;20059;-76
2022/06/25 05:04:04;;;;;;;16.67;4.50;;;;;;;25.40;49.21;100381.50;5015263;28;20049;-78
2022/06/25 05:06:30;;;;;;;17.33;4.60;;;;;;;25.39;49.31;100379.81;5011061;28;20026;-80
2022/06/25 05:08:55;;;;;;;13.73;4.22;;;;;;;25.47;49.28;100396.06;5004627;28;20034;-76
2022/06/25 05:11:21;;;;;;;13.38;4.57;;;;;;;25.51;49.31;100386.28;5004160;28;20033;-76
2022/06/25 05:13:48;;;;;;;9.05;3.72;;;;;;;25.54;48.05;100396.84;5006109;28;20472;-76
2022/06/25 05:16:14;;;;;;;7.53;3.08;;;;;;;25.64;48.18;100393.56;5005016;28;20423;-74
2022/06/25 05:18:39;;;;;;;16.00;3.58;;;;;;;25.63;48.16;100392.72;5004874;28;20113;-76
2022/06/25 05:21:05;;;;;;;5.70;3.10;;;;;;;25.64;47.80;100394.41;5003574;28;20028;-77
2022/06/25 05:23:30;;;;;;;8.20;3.45;;;;;;;25.68;47.60;100401.16;5003637;28;20045;-77
2022/06/25 05:25:56;;;;;;;5.65;3.33;;;;;;;25.62;47.66;100396.56;5006112;28;20101;-77
2022/06/25 05:28:21;;;;;;;11.18;3.55;;;;;;;25.57;48.02;100401.88;5014910;28;20053;-76
2022/06/25 05:30:47;;;;;;;7.97;3.08;;;;;;;25.59;48.06;100394.25;5010170;28;20417;-77
2022/06/25 05:33:13;;;;;;;7.43;3.55;;;;;;;25.58;47.85;100395.31;4987734;28;20038;-77
2022/06/25 05:35:38;;;;;;;14.95;3.72;;;;;;;25.52;48.30;100393.47;5011348;28;20034;-78
2022/06/25 05:38:05;;;;;;;8.45;3.92;;;;;;;25.48;48.25;100391.34;5014043;28;20029;-79
2022/06/25 05:40:31;;;;;;;30.25;5.38;;;;;;;25.52;48.33;100392.63;5010998;28;20026;-79
2022/06/25 05:42:56;;;;;;;9.65;4.10;;;;;;;25.49;48.26;100393.94;4993948;28;20061;-80
2022/06/25 05:45:22;;;;;;;7.75;3.53;;;;;;;25.41;48.50;100388.69;4994385;28;20032;-79
2022/06/25 05:47:48;;;;;;;12.07;3.75;;;;;;;25.46;48.48;100397.09;4995005;28;20081;-77
2022/06/25 05:50:14;;;;;;;16.38;4.68;;;;;;;25.51;48.54;100400.03;4994754;28;20085;-77
2022/06/25 05:52:41;;;;;;;14.00;3.85;;;;;;;25.44;49.09;100396.50;4994716;28;20033;-77
2022/06/25 05:55:07;;;;;;;19.42;4.05;;;;;;;25.55;48.93;100395.78;4994632;28;20452;-79
2022/06/25 05:57:32;;;;;;;21.33;4.53;;;;;;;25.68;48.56;100406.66;4994792;28;20479;-78
2022/06/25 05:59:58;;;;;;;6.85;3.65;;;;;;;25.78;48.59;100400.59;4994863;28;20141;-76
2022/06/25 06:02:26;;;;;;;6.13;3.88;;;;;;;25.78;48.14;100390.41;4995173;28;20480;-83
2022/06/25 06:04:53;;;;;;;47.15;20.02;;;;;;;25.79;48.81;100386.59;4995448;28;20037;-80
2022/06/25 06:07:18;;;;;;;14.20;4.30;;;;;;;25.86;48.62;100392.88;4993489;28;20559;-75
2022/06/25 06:09:44;;;;;;;7.35;3.80;;;;;;;25.80;48.90;100388.28;4994293;28;20032;-76
2022/06/25 06:12:09;;;;;;;5.97;3.78;;;;;;;25.83;48.54;100385.09;4994261;28;20022;-76
2022/06/25 06:14:35;;;;;;;4.95;4.13;;;;;;;25.79;48.43;100378.34;4994248;28;20089;-76
2022/06/25 06:17:00;;;;;;;6.70;3.70;;;;;;;25.86;48.43;100386.53;4994057;28;20041;-78
2022/06/25 06:19:26;;;;;;;8.38;3.92;;;;;;;25.90;48.71;100387.75;4994286;28;20026;-77
2022/06/25 06:21:51;;;;;;;9.55;5.65;;;;;;;25.92;48.55;100386.47;4994195;28;20026;-77
2022/06/25 06:24:17;;;;;;;11.45;5.40;;;;;;;25.89;48.83;100377.81;4994009;28;20464;-77
2022/06/25 06:26:42;;;;;;;5.07;3.95;;;;;;;25.99;48.85;100389.13;4994238;28;20420;-78
2022/06/25 06:29:07;;;;;;;7.07;4.10;;;;;;;26.05;49.11;100384.59;4994870;28;20054;-79
2022/06/25 06:31:33;;;;;;;14.10;5.55;;;;;;;26.11;48.74;100383.69;4994361;28;20034;-77
2022/06/25 06:33:59;;;;;;;11.82;4.25;;;;;;;26.17;48.31;100388.28;4993980;28;20045;-77
2022/06/25 06:36:24;;;;;;;11.55;4.90;;;;;;;26.20;48.80;100388.69;4993677;28;20022;-77
2022/06/25 06:38:50;;;;;;;8.48;4.70;;;;;;;26.30;48.18;100377.91;4993842;28;20535;-75
2022/06/25 06:41:18;;;;;;;6.97;5.10;;;;;;;26.34;48.05;100381.06;4993785;28;20477;-78
2022/06/25 06:43:45;;;;;;;16.27;4.57;;;;;;;26.35;48.01;100386.34;4993537;28;20588;-79
2022/06/25 06:46:13;;;;;;;9.73;4.88;;;;;;;26.37;47.66;100383.34;4993229;28;20105;-76
2022/06/25 06:48:39;;;;;;;8.60;4.30;;;;;;;26.42;47.86;100380.75;4993605;28;20026;-76
2022/06/25 06:51:04;;;;;;;10.55;4.10;;;;;;;26.45;47.44;100388.56;4991932;28;20080;-76
2022/06/25 06:53:30;;;;;;;9.63;4.20;;;;;;;26.52;47.83;100381.00;4992821;28;20053;-76
2022/06/25 06:55:55;;;;;;;15.43;4.00;;;;;;;26.61;47.63;100378.75;4992792;28;20523;-76
2022/06/25 06:58:21;;;;;;;10.45;4.60;;;;;;;26.61;47.52;100381.50;4992834;28;20400;-76
2022/06/25 07:00:46;;;;;;;13.38;4.05;;;;;;;26.66;47.80;100374.22;4992852;28;20041;-76
2022/06/25 07:03:12;;;;;;;5.43;4.15;;;;;;;26.73;46.99;100382.38;4991868;28;20468;-77
2022/06/25 07:05:37;;;;;;;9.57;4.63;;;;;;;26.69;47.34;100370.16;4991481;28;20026;-78
2022/06/25 07:08:03;;;;;;;9.48;4.82;;;;;;;26.76;47.43;100376.38;4991214;28;20125;-76
2022/06/25 07:10:28;;;;;;;6.38;3.83;;;;;;;26.84;47.03;100389.91;4991811;28;20030;-75
2022/06/25 07:12:54;;;;;;;6.10;3.97;;;;;;;26.87;47.54;100387.50;4991532;28;20097;-76
2022/06/25 07:15:19;;;;;;;7.63;3.80;;;;;;;26.94;46.63;100390.97;4991760;28;20438;-76
2022/06/25 07:17:45;;;;;;;12.15;5.32;;;;;;;26.99;47.10;100393.88;4992235;28;20034;-76
2022/06/25 07:20:11;;;;;;;11.77;4.63;;;;;;;27.06;45.68;100388.25;4992481;28;20456;-76
2022/06/25 07:22:36;;;;;;;9.10;4.32;;;;;;;27.09;46.18;100386.94;4992297;28;20040;-75
2022/06/25 07:25:02;;;;;;;12.98;4.53;;;;;;;27.11;46.28;100398.56;4992398;28;20034;-76
2022/06/25 07:27:29;;;;;;;13.73;4.18;;;;;;;27.18;44.80;100391.88;4992178;28;20034;-76
2022/06/25 07:29:54;;;;;;;9.15;4.13;;;;;;;27.24;45.21;100390.91;4992300;28;20026;-75
2022/06/25 07:32:20;;;;;;;12.68;4.22;;;;;;;27.36;44.80;100390.91;4992271;28;20030;-77
2022/06/25 07:34:45;;;;;;;9.10;4.15;;;;;;;27.43;45.20;100386.97;4992342;28;20410;-76
2022/06/25 07:37:11;;;;;;;9.57;4.03;;;;;;;27.50;44.78;100384.94;4992184;28;20010;-76
2022/06/25 07:39:38;;;;;;;6.38;4.03;;;;;;;27.59;44.97;100385.41;4992304;28;20097;-75
2022/06/25 07:42:04;;;;;;;10.23;4.57;;;;;;;27.58;44.83;100392.03;4992035;28;20141;-75
2022/06/25 07:44:31;;;;;;;11.02;4.63;;;;;;;27.66;44.06;100394.41;4992353;28;20054;-76
2022/06/25 07:46:56;;;;;;;11.60;5.68;;;;;;;27.81;43.87;100386.47;4992104;28;20057;-76
2022/06/25 07:49:22;;;;;;;10.15;4.70;;;;;;;27.87;43.90;100385.50;4992051;28;20030;-75
2022/06/25 07:51:56;;;;;;;14.50;4.70;;;;;;;27.91;44.38;100381.16;4992826;28;20018;-77
2022/06/25 07:54:23;;;;;;;6.13;4.20;;;;;;;27.92;44.30;100391.13;4992540;28;20034;-75
2022/06/25 07:56:48;;;;;;;9.65;3.65;;;;;;;27.99;44.45;100389.06;4992378;28;20027;-77
2022/06/25 07:59:14;;;;;;;8.80;4.60;;;;;;;27.98;44.31;100381.84;4992207;28;20033;-79
2022/06/25 08:01:40;;;;;;;12.30;4.22;;;;;;;28.04;44.21;100378.13;4991940;28;20484;-77
2022/06/25 08:04:05;;;;;;;9.48;5.05;;;;;;;28.18;44.29;100380.63;4991051;28;20468;-78
2022/06/25 08:06:34;;;;;;;6.07;4.80;;;;;;;28.24;43.61;100376.88;4992327;28;20398;-78
2022/06/25 08:09:00;;;;;;;7.78;4.63;;;;;;;28.32;42.25;100379.22;4992685;28;20130;-81
2022/06/25 08:11:25;;;;;;;14.50;6.05;;;;;;;28.34;43.17;100379.84;4993187;28;20030;-80
2022/06/25 08:13:51;;;;;;;7.13;4.03;;;;;;;28.41;42.22;100378.59;4991663;28;20022;-81
2022/06/25 08:16:16;;;;;;;13.48;4.63;;;;;;;28.41;42.57;100380.53;4991897;28;20022;-81
2022/06/25 08:18:42;;;;;;;6.72;4.03;;;;;;;28.41;43.19;100367.53;4991919;28;20464;-81
2022/06/25 08:21:07;;;;;;;12.25;3.85;;;;;;;28.44;41.37;100380.06;4991562;28;20042;-81
2022/06/25 08:23:33;;;;;;;7.60;4.45;;;;;;;28.40;41.88;100373.31;4990662;28;20113;-82
2022/06/25 08:25:58;;;;;;;8.15;4.18;;;;;;;28.48;41.92;100375.69;4991288;28;20030;-82
2022/06/25 08:28:24;;;;;;;11.82;4.30;;;;;;;28.54;41.86;100367.22;4990361;28;20030;-82
2022/06/25 08:30:50;;;;;;;8.30;4.20;;;;;;;28.49;42.71;100366.31;4992386;28;20081;-82
2022/06/25 08:33:15;;;;;;;12.80;3.55;;;;;;;28.59;41.67;100366.50;4992589;28;20084;-81
2022/06/25 08:35:41;;;;;;;5.93;4.25;;;;;;;28.67;42.89;100374.41;4992485;28;20496;-82
2022/06/25 08:38:07;;;;;;;8.57;5.15;;;;;;;28.72;41.57;100374.50;4993361;28;20418;-78
2022/06/25 08:40:32;;;;;;;22.08;4.57;;;;;;;28.79;41.60;100383.50;4992753;28;20465;-78
2022/06/25 08:42:59;;;;;;;6.03;4.22;;;;;;;28.87;41.54;100380.31;4992818;28;20572;-78
2022/06/25 08:45:24;;;;;;;12.07;4.50;;;;;;;28.92;41.82;100380.41;4993131;28;20034;-82
2022/06/25 08:47:51;;;;;;;12.02;4.25;;;;;;;28.93;41.28;100389.53;4992605;28;20422;-77
2022/06/25 08:50:21;;;;;;;6.18;3.83;;;;;;;28.97;41.00;100386.03;4992372;28;20026;-79
2022/06/25 08:52:50;;;;;;;6.78;3.83;;;;;;;29.07;39.61;100379.81;4992361;28;20037;-80
2022/06/25 08:55:39;;;;;;;17.75;4.22;;;;;;;29.17;39.99;100380.81;4992408;28;20062;-78
2022/06/25 08:58:06;;;;;;;16.02;4.03;;;;;;;29.24;39.98;100375.13;4992211;28;20108;-78
2022/06/25 09:00:36;;;;;;;12.20;4.00;;;;;;;29.32;40.04;100376.66;4992086;28;20032;-77
2022/06/25 09:03:03;;;;;;;12.52;3.97;;;;;;;29.37;40.92;100391.44;4992261;28;20034;-77
2022/06/25 09:05:34;;;;;;;15.00;5.13;;;;;;;29.29;41.17;100389.09;4992220;28;20037;-77
2022/06/25 09:08:02;;;;;;;6.20;4.00;;;;;;;29.33;40.51;100394.94;4991969;28;20469;-77
2022/06/25 09:10:29;;;;;;;20.65;6.22;;;;;;;29.33;40.76;100384.69;4992150;28;20415;-79
2022/06/25 09:12:57;;;;;;;9.77;4.65;;;;;;;29.42;40.02;100382.34;4992232;28;20077;-76
2022/06/25 09:15:39;;;;;;;30.80;5.25;;;;;;;29.42;41.52;100401.72;4994036;28;20030;-76
2022/06/25 09:18:09;;;;;;;4.95;3.25;;;;;;;29.40;44.86;100401.16;4995783;28;20031;-76
2022/06/25 09:20:36;;;;;;;22.55;4.05;;;;;;;29.29;47.78;100399.34;4995556;28;20049;-76
2022/06/25 09:23:06;;;;;;;6.75;4.03;;;;;;;29.04;48.98;100391.41;4995457;28;20379;-78
2022/06/25 09:25:34;;;;;;;11.48;3.88;;;;;;;28.74;49.84;100397.25;4993650;28;20089;-78
2022/06/25 09:28:01;;;;;;;10.02;3.92;;;;;;;28.31;50.91;100391.41;4995137;28;20039;-78
2022/06/25 09:30:31;;;;;;;19.38;4.68;;;;;;;28.24;51.50;100390.69;4995032;28;20027;-78
2022/06/25 09:33:01;;;;;;;12.52;3.67;;;;;;;28.16;51.50;100393.88;4997189;28;20034;-80
2022/06/25 09:35:30;;;;;;;12.25;4.10;;;;;;;28.18;52.00;100398.06;5012691;28;20373;-80
2022/06/25 09:38:07;;;;;;;10.02;3.63;;;;;;;27.94;54.49;100386.19;5014952;28;20483;-77
2022/06/25 09:40:33;;;;;;;14.40;4.18;;;;;;;27.70;54.51;100405.84;5014764;28;20037;-75
2022/06/25 09:43:09;;;;;;;17.25;3.95;;;;;;;27.46;55.67;100402.25;5014534;28;20054;-81
2022/06/25 09:45:35;;;;;;;9.40;4.35;;;;;;;27.25;56.85;100413.81;4993824;28;20083;-78
2022/06/25 09:48:00;;;;;;;11.43;4.18;;;;;;;27.24;55.96;100412.16;4995948;28;20057;-78
2022/06/25 09:50:26;;;;;;;6.78;3.63;;;;;;;27.30;55.28;100395.50;4996294;28;20468;-78
2022/06/25 09:52:59;;;;;;;7.45;3.30;;;;;;;27.33;53.84;100399.69;4997480;28;20480;-79
2022/06/25 09:55:28;;;;;;;5.65;3.08;;;;;;;27.33;52.20;100400.53;4997104;28;20209;-78
2022/06/25 09:57:54;;;;;;;11.18;3.17;;;;;;;27.39;51.15;100407.84;4999260;28;20022;-76
2022/06/25 10:00:22;;;;;;;8.30;3.17;;;;;;;27.39;52.78;100409.78;5000789;28;20053;-78
2022/06/25 10:02:49;;;;;;;10.73;3.97;;;;;;;27.29;53.84;100409.53;4999929;28;20058;-76
2022/06/25 10:05:38;;;;;;;17.67;4.45;;;;;;;27.35;54.46;100395.59;4981655;28;20046;-76
2022/06/25 10:08:11;;;;;;;11.98;4.00;;;;;;;27.29;55.76;100398.47;5000167;28;20038;-78
2022/06/25 10:10:40;;;;;;;24.83;6.13;;;;;;;27.49;55.54;100402.59;4981749;28;20094;-80
2022/06/25 10:13:07;;;;;;;16.70;4.22;;;;;;;27.68;54.78;100408.81;4978205;28;20038;-80
2022/06/25 10:15:33;;;;;;;10.82;3.60;;;;;;;27.78;53.63;100408.22;4975385;28;20031;-79
2022/06/25 10:18:04;;;;;;;18.02;4.75;;;;;;;27.61;53.00;100405.38;4975554;28;20122;-78
2022/06/25 10:20:31;;;;;;;8.70;3.40;;;;;;;27.69;54.20;100398.63;4975136;28;20030;-76
2022/06/25 10:22:59;;;;;;;10.85;3.63;;;;;;;27.77;53.43;100410.13;4975202;28;20076;-76
2022/06/25 10:25:26;;;;;;;10.27;3.72;;;;;;;27.64;54.09;100423.38;4974681;28;20065;-78
2022/06/25 10:28:12;;;;;;;8.18;3.60;;;;;;;27.66;54.19;100416.53;4974824;28;20026;-81
2022/06/25 10:30:47;;;;;;;11.80;3.75;;;;;;;27.42;54.55;100421.22;4975223;28;20033;-77
2022/06/25 10:33:15;;;;;;;13.55;4.32;;;;;;;27.28;55.17;100424.41;4975079;28;20541;-79
2022/06/25 10:35:41;;;;;;;10.20;4.22;;;;;;;27.19;54.63;100425.81;4974718;28;20579;-76
2022/06/25 10:38:10;;;;;;;10.55;3.78;;;;;;;27.01;54.58;100435.91;4974688;28;20023;-77
2022/06/25 10:40:53;;;;;;;11.32;3.10;;;;;;;27.02;54.06;100437.59;4974260;28;20062;-75
2022/06/25 10:43:41;;;;;;;13.80;4.35;;;;;;;26.76;54.04;100443.47;4974481;28;20059;-76
2022/06/25 10:46:40;;;;;;;11.50;3.70;;;;;;;26.64;54.71;100442.56;4991964;28;20411;-76
2022/06/25 10:49:11;;;;;;;12.77;3.88;;;;;;;26.55;54.81;100452.25;4993733;28;20030;-75
2022/06/25 10:51:46;;;;;;;7.32;3.72;;;;;;;26.64;55.19;100438.97;4991954;28;20030;-76
2022/06/25 10:54:26;;;;;;;5.95;3.67;;;;;;;26.72;55.72;100446.94;4993352;28;20058;-78
2022/06/25 10:56:53;;;;;;;11.25;4.15;;;;;;;26.81;55.93;100440.88;5002465;28;20030;-78
2022/06/25 10:59:47;;;;;;;7.25;3.28;;;;;;;27.02;56.33;100445.88;5001303;28;20488;-75
2022/06/25 11:02:15;;;;;;;13.95;4.50;;;;;;;27.18;55.61;100438.81;4993532;28;20042;-75
2022/06/25 11:04:52;;;;;;;9.55;3.00;;;;;;;27.29;55.30;100435.22;4999175;28;20030;-74
2022/06/25 11:07:23;;;;;;;4.20;2.70;;;;;;;27.47;54.40;100428.78;5001384;28;20110;-78
2022/06/25 11:09:59;;;;;;;9.40;2.95;;;;;;;27.40;53.88;100444.63;5002416;28;20087;-77
2022/06/25 11:12:27;;;;;;;5.43;2.88;;;;;;;27.27;54.63;100434.63;5002696;28;20044;-76
2022/06/25 11:15:17;;;;;;;14.18;3.40;;;;;;;27.39;54.62;100443.75;5013130;28;20092;-77
2022/06/25 11:17:43;;;;;;;13.05;3.83;;;;;;;27.24;54.23;100445.31;5012684;28;20022;-78
2022/06/25 11:20:10;;;;;;;14.18;4.22;;;;;;;27.24;54.62;100448.91;5012125;28;20084;-74
2022/06/25 11:22:52;;;;;;;5.45;3.50;;;;;;;26.92;55.57;100442.84;5012126;28;20022;-76
2022/06/25 11:30:50;;;;;;;7.15;3.05;;;;;;;26.57;56.44;100455.66;5012606;28;20112;-75
2022/06/25 11:33:15;;;;;;;9.57;3.83;;;;;;;26.35;56.91;100457.22;5012165;28;20036;-75
2022/06/25 11:35:44;;;;;;;10.57;4.55;;;;;;;26.35;57.43;100454.44;5012174;28;20022;-75